Jordan Valley, OR

7:53 AM MST on February 24, 2017 (GMT -0700)
Rome State | | Change Station

Elev 4052 ft 42.58 °N, 117.89 °W | Updated 1 hour ago

Clear
Clear
13 °F
Feels Like 1 °F
N
9
Wind Variable Wind from South

Today
High -- | Low -- °F
--% Chance of Precip.
Yesterday
High -- | Low -- °F
Precip. -- in
Pressure 30.21 in
Visibility -9999.0 miles
Clouds
Windchill 1 °F
Dew Point 8 °F
Humidity 81%
Rainfall 0.00 in
Snow Depth Not available.
7:34 AM 6:35 PM
Waning Crescent, 5% visible
METAR KREO 241352Z AUTO 18008KT M11/M13 A3007 RMK AO1 SLP229 T11061133
Pressure 30.21 in
Visibility -9999.0 miles
Clouds
Windchill 1 °F
Dew Point 8 °F
Humidity 81%
Rainfall 0.00 in
Snow Depth Not available.
7:34 AM 6:35 PM
Waning Crescent, 5% visible
METAR KREO 241352Z AUTO 18008KT M11/M13 A3007 RMK AO1 SLP229 T11061133

Get Your Daily Forecast Email!

Thanks for signing up!

Be on the lookout for a verification email in your inbox.

You'll start receiving the daily forecast at 8 AM.

×

10-Day Weather Forecast

Almanac

Astronomy

Feb. 24, 2017 Rise Set
Actual Time
Civil Twilight
Nautical Twilight
Astronomical Twilight
Moon
Length of Visible Light
Length of Day
Tomorrow will be .
, % of the Moon is Illuminated

Today's Extremes

State Highs State Lows

Community

WunderPhotos

Upload Photos

1,962,540 photos uploaded!

WunderBlog® & News

Nearby

Air Quality

  Air Quality AQ Index Pollutant
Not available.

Snow Depth

Station Depth Elevation

Earthquake Activity

City Distance Mag. Time & Date
Minimum magnitude displayed is 2.5.

Coastal Water Temperatures

Place Temperature

Stations

Nearby Weather Stations

Station Location Temp. Windchill Dew Point Humidity Wind Precip. Elev Updated Type
                   

Watches & Warnings

There are currently no watches in effect.